»·PEaware :: N262H KBFL-KPRB

N262H :: KBFL-KPRB

FLIGHT INFORMATION

Flight Status: Arrived
Operator: Privately registered:
United States
More flights under this callsign
Pilot: Paul K. (16555)
Aircraft: PIPER PA-28 CHEROKEE ARCHER
(PA28)
More flights by this aircraft type
Origin: KBFL Meadows
United States
Destination: KPRB Paso Robles Mun
United States
More flights between these airports :: More routes between these airports
Route:
File this flight plan on PilotEdge
Remarks:
Altitude:
(Current/Filed)
6,500ft
Speed:
(Current/Filed)
162kts
Departed: 28-Sep-17 08:48 PM
Arrived: 28-Sep-17 09:27 PM
Distance/Time
Traveled:
78nm/0:39
Distance/Time
To Go:
Arrived

Flight Plot

Page will automatically refresh every two minutes.

Flight plan parsing failed; only flown route is shown


Map Options




Map Legend


Flown Route
Filed Route
Departure Airport
Arrival Airport
Navaid (VOR, NDB)
Fix

Horizontal Profiles

Position Reports

Time Latitude Longitude Heading Altitude Ground
Speed
28-Sep-17 20:35 35.429374 -119.046102 226 509ft 0kts
28-Sep-17 20:36 35.429374 -119.046102 226 509ft 0kts
28-Sep-17 20:37 35.429374 -119.046102 226 509ft 0kts
28-Sep-17 20:38 35.429374 -119.046102 226 509ft 0kts
28-Sep-17 20:39 35.429374 -119.046102 226 509ft 0kts
28-Sep-17 20:40 35.429374 -119.046102 226 509ft 0kts
28-Sep-17 20:41 35.429374 -119.046102 226 509ft 0kts
28-Sep-17 20:42 35.429374 -119.046102 226 509ft 0kts
28-Sep-17 20:43 35.429374 -119.046102 226 509ft 0kts
28-Sep-17 20:44 35.429374 -119.046102 226 509ft 0kts
28-Sep-17 20:45 35.429312 -119.046181 226 509ft 4kts
28-Sep-17 20:46 35.427648 -119.046482 134 509ft 19kts
28-Sep-17 20:47 35.425776 -119.044713 213 509ft 0kts
28-Sep-17 20:48 35.425776 -119.044713 213 509ft 0kts
28-Sep-17 20:49 35.425776 -119.044713 213 509ft 0kts
28-Sep-17 20:50 35.425776 -119.044713 213 509ft 0kts
28-Sep-17 20:51 35.425507 -119.045259 261 509ft 11kts
28-Sep-17 20:52 35.435636 -119.058140 317 1144ft 86kts
28-Sep-17 20:53 35.441109 -119.090708 281 2616ft 103kts
28-Sep-17 20:54 35.441301 -119.123492 251 4036ft 108kts
28-Sep-17 20:55 35.437685 -119.159037 284 5294ft 104kts
28-Sep-17 20:56 35.445100 -119.194077 284 6445ft 111kts
28-Sep-17 20:57 35.454871 -119.239217 291 6530ft 152kts
28-Sep-17 20:58 35.468908 -119.287625 290 6518ft 151kts
28-Sep-17 20:59 35.482642 -119.337775 289 6519ft 157kts
28-Sep-17 21:00 35.496415 -119.389574 288 6429ft 161kts
28-Sep-17 21:01 35.509980 -119.441558 288 6430ft 159kts
28-Sep-17 21:02 35.523408 -119.493330 288 6430ft 159kts
28-Sep-17 21:03 35.536489 -119.543912 288 6439ft 158kts
28-Sep-17 21:04 35.549816 -119.595563 288 6439ft 159kts
28-Sep-17 21:05 35.563135 -119.647292 288 6439ft 159kts
28-Sep-17 21:06 35.575864 -119.698082 287 6440ft 159kts
28-Sep-17 21:07 35.589037 -119.750029 287 6439ft 159kts
28-Sep-17 21:08 35.602176 -119.801617 287 6439ft 157kts
28-Sep-17 21:09 35.615214 -119.852900 288 6439ft 157kts
28-Sep-17 21:10 35.628323 -119.904280 288 6439ft 158kts
28-Sep-17 21:11 35.641443 -119.955800 288 6445ft 157kts
28-Sep-17 21:12 35.654174 -120.005864 288 6568ft 154kts
28-Sep-17 21:13 35.657504 -120.058732 273 6568ft 157kts
28-Sep-17 21:14 35.658875 -120.112539 273 6567ft 157kts
28-Sep-17 21:15 35.660246 -120.166147 273 6567ft 157kts
28-Sep-17 21:16 35.661643 -120.220216 273 6560ft 157kts
28-Sep-17 21:17 35.663091 -120.274248 273 6579ft 158kts
28-Sep-17 21:18 35.664520 -120.328511 273 6567ft 158kts
28-Sep-17 21:19 35.665777 -120.382095 273 6124ft 148kts
28-Sep-17 21:20 35.666683 -120.431524 273 5533ft 142kts
28-Sep-17 21:21 35.667551 -120.480010 273 4976ft 141kts
28-Sep-17 21:22 35.668447 -120.528257 273 4513ft 141kts
28-Sep-17 21:23 35.670447 -120.578962 275 3442ft 158kts
28-Sep-17 21:24 35.649191 -120.606323 140 2441ft 166kts
28-Sep-17 21:25 35.661682 -120.575358 34 1816ft 101kts
28-Sep-17 21:26 35.669512 -120.545625 60 2321ft 110kts
28-Sep-17 21:27 35.695552 -120.554551 355 1946ft 105kts
28-Sep-17 21:28 35.708782 -120.582197 293 1479ft 91kts
28-Sep-17 21:29 35.704584 -120.610051 215 1328ft 100kts
28-Sep-17 21:30 35.681326 -120.625254 213 880ft 85kts
28-Sep-17 21:31 35.673877 -120.631490 264 838ft 14kts
28-Sep-17 21:32 35.673884 -120.635849 269 838ft 11kts
28-Sep-17 21:33 35.674141 -120.636263 78 838ft 0kts
28-Sep-17 21:34 35.674141 -120.636264 78 838ft 0kts

Navigation Log

Ident Type
Flight plan parsing failed, navigation log unavailable